Tarrants, Missouri
Current Conditions -  °F | °C
As of 3:35 AM on Friday 24 Oct 2014 (Local Time) from KPPQ Reporting Station
Scattered Clouds Scattered Clouds  
Wind Chill: 55°   Ceiling: Unl
Heat Index: 55°   Visibility: 10mi
Dew Point: 52°   Wind: 6mph
Humidity: 88%   Direction: 270°W
Pressure: 30.08"   Gusts: NA
Location:  39.321°N, 91.1912°W
Report Text: KPPQ 240835Z AUTO 27005KT 10SM SCT007 13/11 A3008 RMK AO2 T01300110
Loading
Personal Weather Stations






























Interactive Weather Map
Tropical Storm Tracking
New forecast layout! Learn more

10-Day Weather Forecast

Advertisements
Track Severe Weather on mobile